createdAt,value
2023-01-18T00:01:11.857Z,23.08
2023-01-18T00:03:40.005Z,21.30
2023-01-18T00:06:12.901Z,21.73
2023-01-18T00:11:15.779Z,22.05
2023-01-18T00:13:43.316Z,20.80
2023-01-18T00:16:14.868Z,17.98
2023-01-18T00:18:42.497Z,17.88
2023-01-18T00:21:12.031Z,18.80
2023-01-18T00:23:39.413Z,16.80
2023-01-18T00:26:11.007Z,19.90
2023-01-18T00:28:39.762Z,16.33
2023-01-18T00:31:20.992Z,17.35
2023-01-18T00:33:50.611Z,16.27
2023-01-18T00:36:19.654Z,16.15
2023-01-18T00:38:51.369Z,17.25
2023-01-18T00:41:20.972Z,13.07
2023-01-18T00:43:48.036Z,15.60
2023-01-18T00:46:24.890Z,14.10
2023-01-18T00:48:54.640Z,17.80
2023-01-18T00:51:25.252Z,11.98
2023-01-18T00:53:52.545Z,12.90
2023-01-18T00:56:22.860Z,10.73
2023-01-18T00:58:50.126Z,13.35
2023-01-18T01:01:17.654Z,13.27
2023-01-18T01:04:03.406Z,13.00
2023-01-18T01:06:45.001Z,12.73
2023-01-18T01:09:26.515Z,11.60
2023-01-18T01:12:13.527Z,12.88
2023-01-18T01:15:04.439Z,11.70
2023-01-18T01:17:53.591Z,11.25
2023-01-18T01:20:40.730Z,10.70
2023-01-18T01:23:32.959Z,12.68
2023-01-18T01:26:13.292Z,12.02
2023-01-18T01:28:50.370Z,11.23
2023-01-18T01:31:20.139Z,12.43
2023-01-18T01:33:50.509Z,12.45
2023-01-18T01:36:27.820Z,12.43
2023-01-18T01:38:55.698Z,9.52
2023-01-18T01:41:32.437Z,8.65
2023-01-18T01:44:20.777Z,9.68
2023-01-18T01:47:12.978Z,11.50
2023-01-18T01:49:50.249Z,9.13
2023-01-18T01:52:27.433Z,9.30
2023-01-18T01:55:18.259Z,7.47
2023-01-18T01:57:55.504Z,8.65
2023-01-18T02:00:24.527Z,10.75
2023-01-18T02:03:07.437Z,8.90
2023-01-18T02:05:43.770Z,10.25
2023-01-18T02:08:13.467Z,10.25
2023-01-18T02:10:40.761Z,7.95
2023-01-18T02:13:11.079Z,8.05
2023-01-18T02:16:19.019Z,9.38
2023-01-18T02:19:13.481Z,6.50
2023-01-18T02:21:53.290Z,5.65
2023-01-18T02:25:08.259Z,7.47
2023-01-18T02:27:51.320Z,5.95
2023-01-18T02:33:26.652Z,5.60
2023-01-18T02:36:01.038Z,6.07
2023-01-18T02:38:41.426Z,8.88
2023-01-18T02:41:56.490Z,8.10
2023-01-18T02:44:57.942Z,5.38
2023-01-18T02:47:27.502Z,5.47
2023-01-18T02:49:57.395Z,4.47
2023-01-18T02:52:47.183Z,3.80
2023-01-18T02:55:45.580Z,3.92
2023-01-18T02:58:23.245Z,3.95
2023-01-18T03:01:38.303Z,3.78
2023-01-18T03:04:20.490Z,4.28
2023-01-18T03:07:02.385Z,4.38
2023-01-18T03:09:31.123Z,4.45
2023-01-18T03:12:22.030Z,4.03
2023-01-18T03:15:13.949Z,5.05
2023-01-18T03:17:53.775Z,8.10
2023-01-18T03:20:34.211Z,7.03
2023-01-18T03:23:38.811Z,10.88
2023-01-18T03:26:10.723Z,11.98
2023-01-18T03:29:03.054Z,11.48
2023-01-18T03:32:12.740Z,12.87
2023-01-18T03:34:49.486Z,13.57
2023-01-18T03:37:27.393Z,10.50
2023-01-18T03:40:08.107Z,72.53
2023-01-18T03:43:03.329Z,98.07
2023-01-18T03:45:46.598Z,35.60
2023-01-18T03:48:15.029Z,79.63
2023-01-18T03:51:02.328Z,197.95
2023-01-18T03:53:39.384Z,88.20
2023-01-18T03:56:37.574Z,43.53
2023-01-18T03:59:06.830Z,18.85
2023-01-18T04:01:34.313Z,21.65
2023-01-18T04:04:02.709Z,37.40
2023-01-18T04:06:33.006Z,24.90
2023-01-18T04:08:59.999Z,25.17
2023-01-18T04:11:27.648Z,14.90
2023-01-18T04:13:54.770Z,18.55
2023-01-18T04:16:22.028Z,70.85
2023-01-18T04:18:49.327Z,23.55
2023-01-18T04:21:16.503Z,29.17
2023-01-18T04:23:43.493Z,22.73
2023-01-18T04:26:11.880Z,23.23
2023-01-18T04:28:38.892Z,21.42
2023-01-18T04:31:06.099Z,16.45
2023-01-18T04:33:33.311Z,20.58
2023-01-18T04:36:00.956Z,20.65
2023-01-18T04:38:28.260Z,16.65
2023-01-18T04:40:55.602Z,15.13
2023-01-18T04:43:22.519Z,18.38
2023-01-18T04:45:55.353Z,25.00
2023-01-18T04:50:52.015Z,34.35
2023-01-18T04:53:20.095Z,22.98
2023-01-18T04:55:47.665Z,20.73
2023-01-18T04:58:15.164Z,19.02
2023-01-18T05:00:42.455Z,65.68
2023-01-18T05:03:11.512Z,22.95
2023-01-18T05:05:39.355Z,21.65
2023-01-18T05:08:06.408Z,22.30
2023-01-18T05:10:33.783Z,21.30
2023-01-18T05:13:01.309Z,18.50
2023-01-18T05:15:28.733Z,18.55
2023-01-18T05:17:56.002Z,22.67
2023-01-18T05:20:35.450Z,29.48
2023-01-18T05:23:11.085Z,18.77
2023-01-18T05:25:55.836Z,23.17
2023-01-18T05:28:26.480Z,20.88
2023-01-18T05:30:55.090Z,21.30
2023-01-18T05:33:23.160Z,14.15
2023-01-18T05:35:55.464Z,12.65
2023-01-18T05:38:23.689Z,12.73
2023-01-18T05:40:54.742Z,12.60
2023-01-18T05:43:26.293Z,21.77
2023-01-18T05:45:54.316Z,22.02
2023-01-18T05:48:21.714Z,16.50
2023-01-18T05:50:49.123Z,20.25
2023-01-18T05:53:21.286Z,23.75
2023-01-18T05:56:00.585Z,26.50
2023-01-18T05:58:29.705Z,32.55
2023-01-18T06:00:57.113Z,15.63
2023-01-18T06:03:25.502Z,14.55
2023-01-18T06:05:53.127Z,15.85
2023-01-18T06:08:20.944Z,18.38
2023-01-18T06:10:56.927Z,16.42
2023-01-18T06:13:27.939Z,20.90
2023-01-18T06:16:01.636Z,15.30
2023-01-18T06:18:32.773Z,14.07
2023-01-18T06:21:02.449Z,18.77
2023-01-18T06:23:31.163Z,16.80
2023-01-18T06:25:59.115Z,16.10
2023-01-18T06:28:26.832Z,14.65
2023-01-18T06:30:56.394Z,15.80
2023-01-18T06:33:24.792Z,13.15
2023-01-18T06:35:52.803Z,14.90
2023-01-18T06:38:20.590Z,12.82
2023-01-18T06:40:47.971Z,15.38
2023-01-18T06:43:16.143Z,14.80
2023-01-18T06:45:43.456Z,19.45
2023-01-18T06:48:10.497Z,13.82
2023-01-18T06:50:37.544Z,15.50
2023-01-18T06:53:04.796Z,24.27
2023-01-18T06:55:31.837Z,13.20
2023-01-18T06:57:59.176Z,14.27
2023-01-18T07:00:26.306Z,11.80
2023-01-18T07:02:53.511Z,11.52
2023-01-18T07:05:21.247Z,11.82
2023-01-18T07:07:48.476Z,12.35
2023-01-18T07:10:16.746Z,10.05
2023-01-18T07:12:48.477Z,10.50
2023-01-18T07:15:22.052Z,10.68
2023-01-18T07:17:50.690Z,10.38
2023-01-18T07:20:19.804Z,9.18
2023-01-18T07:22:52.821Z,9.57
2023-01-18T07:25:20.710Z,11.25
2023-01-18T07:27:51.795Z,9.88
2023-01-18T07:30:19.327Z,12.80
2023-01-18T07:32:52.995Z,9.35
2023-01-18T07:35:27.460Z,9.82
2023-01-18T07:37:54.814Z,9.45
2023-01-18T07:41:30.060Z,12.98
2023-01-18T07:43:57.818Z,9.50
2023-01-18T07:46:26.143Z,9.57
2023-01-18T07:48:54.003Z,10.45
2023-01-18T07:51:22.475Z,9.77
2023-01-18T07:53:56.349Z,8.95
2023-01-18T07:56:25.758Z,8.93
2023-01-18T07:58:53.616Z,10.73
2023-01-18T08:01:22.840Z,9.10
2023-01-18T08:03:51.201Z,8.90
2023-01-18T08:06:27.649Z,9.35
2023-01-18T08:08:56.599Z,7.47
2023-01-18T08:11:25.847Z,9.63
2023-01-18T08:13:53.535Z,8.43
2023-01-18T08:16:20.704Z,9.07
2023-01-18T08:18:51.635Z,10.35
2023-01-18T08:21:18.855Z,10.50
2023-01-18T08:23:46.193Z,8.40
2023-01-18T08:26:14.916Z,9.82
2023-01-18T08:28:44.721Z,8.88
2023-01-18T08:31:19.799Z,8.68
2023-01-18T08:33:48.898Z,9.25
2023-01-18T08:36:23.722Z,9.50
2023-01-18T08:38:57.440Z,10.50
2023-01-18T08:41:30.790Z,9.57
2023-01-18T08:43:59.754Z,7.55
2023-01-18T08:46:30.144Z,11.82
2023-01-18T08:49:02.468Z,9.40
2023-01-18T08:51:29.604Z,9.95
2023-01-18T08:53:57.279Z,7.45
2023-01-18T08:56:25.365Z,9.77
2023-01-18T08:58:52.767Z,9.60
2023-01-18T09:01:23.003Z,10.05
2023-01-18T09:03:54.218Z,8.52
2023-01-18T09:06:22.107Z,8.88
2023-01-18T09:08:50.631Z,9.02
2023-01-18T09:11:18.670Z,8.90
2023-01-18T09:13:59.895Z,8.27
2023-01-18T09:16:29.819Z,10.15
2023-01-18T09:18:58.231Z,7.97
2023-01-18T09:21:27.950Z,8.30
2023-01-18T09:23:55.391Z,8.07
2023-01-18T09:26:22.371Z,8.20
2023-01-18T09:28:52.870Z,7.43
2023-01-18T09:31:27.878Z,9.35
2023-01-18T09:34:12.978Z,9.65
2023-01-18T09:36:44.422Z,7.15
2023-01-18T09:39:11.715Z,9.50
2023-01-18T09:41:49.638Z,10.20
2023-01-18T09:44:31.884Z,9.35
2023-01-18T09:47:23.344Z,9.73
2023-01-18T09:50:05.341Z,10.48
2023-01-18T09:53:14.046Z,13.30
2023-01-18T09:56:00.085Z,16.02
2023-01-18T09:59:34.466Z,17.73
2023-01-18T10:02:16.994Z,19.95
2023-01-18T10:04:51.796Z,21.05
2023-01-18T10:07:23.069Z,18.52
2023-01-18T10:09:56.604Z,22.85
2023-01-18T10:12:55.851Z,21.77
2023-01-18T10:15:34.581Z,20.98
2023-01-18T10:18:02.011Z,20.80
2023-01-18T10:20:50.279Z,19.42
2023-01-18T10:23:49.859Z,21.63
2023-01-18T10:26:48.901Z,21.05
2023-01-18T10:29:45.826Z,20.10
2023-01-18T10:32:20.923Z,22.45
2023-01-18T10:34:51.884Z,21.42
2023-01-18T10:37:31.636Z,22.10
2023-01-18T10:40:07.609Z,22.88
2023-01-18T10:42:49.517Z,22.40
2023-01-18T10:45:26.732Z,19.50
2023-01-18T10:47:56.610Z,21.63
2023-01-18T10:50:37.300Z,23.27
2023-01-18T10:53:23.075Z,24.13
2023-01-18T10:55:59.727Z,23.77
2023-01-18T10:58:39.687Z,24.30
2023-01-18T11:01:29.095Z,23.92
2023-01-18T11:04:28.810Z,22.02
2023-01-18T11:06:59.785Z,25.63
2023-01-18T11:09:47.336Z,23.95
2023-01-18T11:12:38.735Z,25.17
2023-01-18T11:15:14.957Z,22.05
2023-01-18T11:17:58.423Z,26.25
2023-01-18T11:20:35.522Z,29.00
2023-01-18T11:23:41.949Z,27.73
2023-01-18T11:26:19.531Z,28.50
2023-01-18T11:29:14.655Z,30.02
2023-01-18T11:31:48.279Z,34.08
2023-01-18T11:34:29.646Z,32.40
2023-01-18T11:37:00.736Z,33.50
2023-01-18T11:39:37.361Z,35.13
2023-01-18T11:42:22.982Z,34.72
2023-01-18T11:45:22.543Z,34.05
2023-01-18T11:48:46.598Z,30.83
2023-01-18T11:51:31.079Z,28.42
2023-01-18T11:54:26.575Z,26.45
2023-01-18T11:57:02.630Z,30.05
2023-01-18T11:59:41.773Z,28.15
2023-01-18T12:02:56.799Z,27.05
2023-01-18T12:05:53.066Z,23.15
2023-01-18T12:08:49.224Z,22.83
2023-01-18T12:11:48.054Z,22.67
2023-01-18T12:15:02.289Z,21.17
2023-01-18T12:17:46.679Z,20.42
2023-01-18T12:20:31.707Z,20.98
2023-01-18T12:23:30.127Z,18.27
2023-01-18T12:26:13.124Z,20.17
2023-01-18T12:31:58.923Z,19.02
2023-01-18T12:37:44.457Z,21.38
2023-01-18T12:40:36.689Z,21.05
2023-01-18T12:43:57.596Z,20.05
2023-01-18T12:46:59.238Z,17.23
2023-01-18T12:49:34.243Z,22.05
2023-01-18T12:52:18.148Z,23.52
2023-01-18T12:54:51.978Z,23.27
2023-01-18T13:00:01.362Z,19.75
2023-01-18T13:02:41.767Z,22.45
2023-01-18T13:05:36.894Z,23.20
2023-01-18T13:08:44.964Z,21.42
2023-01-18T13:11:25.534Z,22.08
2023-01-18T13:14:07.186Z,30.45
2023-01-18T13:16:46.678Z,29.17
2023-01-18T13:19:24.848Z,29.25
2023-01-18T13:22:19.595Z,26.33
2023-01-18T13:25:42.972Z,22.20
2023-01-18T13:31:01.984Z,35.15
2023-01-18T13:33:47.631Z,36.42
2023-01-18T13:36:20.296Z,27.17
2023-01-18T13:39:01.126Z,26.02
2023-01-18T13:41:30.699Z,24.55
2023-01-18T13:44:04.572Z,22.17
2023-01-18T13:46:36.591Z,17.77
2023-01-18T13:49:44.900Z,16.33
2023-01-18T13:52:33.413Z,15.70
2023-01-18T13:55:23.035Z,15.80
2023-01-18T13:57:55.620Z,16.05
2023-01-18T14:00:25.551Z,15.07
2023-01-18T14:03:03.872Z,16.83
2023-01-18T14:05:42.462Z,16.52
2023-01-18T14:08:25.061Z,16.13
2023-01-18T14:13:52.882Z,16.10
2023-01-18T14:16:29.680Z,15.48
2023-01-18T14:19:19.448Z,15.00
2023-01-18T14:22:28.723Z,34.13
2023-01-18T14:25:29.742Z,57.97
2023-01-18T14:28:13.462Z,71.75
2023-01-18T14:30:44.505Z,69.40
2023-01-18T14:33:17.345Z,60.92
2023-01-18T14:35:58.923Z,57.08
2023-01-18T14:38:27.230Z,48.30
2023-01-18T14:40:59.991Z,45.17
2023-01-18T14:43:34.481Z,41.83
2023-01-18T14:46:17.481Z,35.72
2023-01-18T14:48:58.191Z,40.40
2023-01-18T14:51:28.448Z,36.00
2023-01-18T14:54:00.526Z,44.63
2023-01-18T14:56:41.101Z,44.58
2023-01-18T14:59:31.117Z,37.90
2023-01-18T15:02:02.711Z,36.28
2023-01-18T15:04:38.991Z,33.90
2023-01-18T15:07:13.599Z,28.80
2023-01-18T15:09:44.393Z,30.65
2023-01-18T15:12:22.536Z,28.13
2023-01-18T15:14:51.288Z,26.90
2023-01-18T15:17:25.189Z,28.92
2023-01-18T15:19:59.718Z,24.50
2023-01-18T15:22:34.338Z,27.17
2023-01-18T15:25:03.039Z,23.25
2023-01-18T15:27:32.721Z,27.92
2023-01-18T15:30:02.313Z,22.92
2023-01-18T15:32:33.018Z,20.35
2023-01-18T15:35:02.339Z,21.20
2023-01-18T15:37:37.396Z,22.42
2023-01-18T15:40:13.728Z,19.73
2023-01-18T15:43:21.855Z,18.40
2023-01-18T15:45:54.643Z,17.55
2023-01-18T15:50:55.118Z,17.52
2023-01-18T15:53:32.676Z,18.02
2023-01-18T15:56:07.540Z,16.65
2023-01-18T15:58:50.098Z,16.23
2023-01-18T16:01:31.700Z,17.83
2023-01-18T16:04:22.097Z,18.38
2023-01-18T16:06:49.680Z,25.33
2023-01-18T16:09:22.962Z,22.20
2023-01-18T16:11:54.368Z,23.13
2023-01-18T16:14:46.194Z,22.50
2023-01-18T16:17:22.875Z,23.38
2023-01-18T16:19:52.867Z,26.17
2023-01-18T16:22:35.846Z,29.02
2023-01-18T16:25:10.048Z,28.30
2023-01-18T16:27:55.321Z,31.88
2023-01-18T16:30:41.008Z,31.60
2023-01-18T16:33:18.547Z,32.33
2023-01-18T16:35:46.528Z,32.22
2023-01-18T16:38:16.623Z,33.67
2023-01-18T16:40:48.862Z,34.63
2023-01-18T16:43:18.915Z,33.25
2023-01-18T16:45:49.668Z,33.17
2023-01-18T16:48:21.391Z,31.25
2023-01-18T16:50:49.379Z,28.92
2023-01-18T16:53:17.748Z,28.35
2023-01-18T16:55:45.185Z,26.08
2023-01-18T16:58:15.157Z,25.05
2023-01-18T17:01:00.716Z,22.67
2023-01-18T17:03:28.473Z,22.15
2023-01-18T17:05:55.553Z,20.45
2023-01-18T17:08:22.793Z,19.15
2023-01-18T17:10:51.870Z,18.15
2023-01-18T17:13:18.864Z,25.30
2023-01-18T17:15:46.076Z,39.58
2023-01-18T17:18:24.007Z,40.42
2023-01-18T17:20:52.265Z,43.67
2023-01-18T17:23:19.658Z,37.35
2023-01-18T17:25:47.415Z,36.30
2023-01-18T17:28:17.904Z,35.05
2023-01-18T17:30:49.698Z,31.02
2023-01-18T17:33:23.874Z,27.60
2023-01-18T17:35:54.461Z,21.90
2023-01-18T17:38:25.012Z,19.80
2023-01-18T17:40:53.789Z,16.50
2023-01-18T17:43:33.317Z,17.17
2023-01-18T17:46:06.203Z,13.75
2023-01-18T17:48:34.008Z,14.32
2023-01-18T17:51:01.202Z,14.95
2023-01-18T17:53:28.300Z,11.23
2023-01-18T17:55:55.648Z,9.93
2023-01-18T17:58:22.797Z,10.73
2023-01-18T18:00:50.679Z,13.80
2023-01-18T18:03:17.838Z,10.48
2023-01-18T18:05:45.223Z,9.27
2023-01-18T18:08:12.250Z,9.23
2023-01-18T18:10:43.696Z,10.43
2023-01-18T18:13:10.671Z,8.60
2023-01-18T18:15:37.934Z,9.05
2023-01-18T18:18:07.456Z,8.73
2023-01-18T18:20:38.613Z,8.05
2023-01-18T18:23:05.704Z,9.32
2023-01-18T18:25:33.857Z,10.30
2023-01-18T18:28:00.782Z,7.45
2023-01-18T18:30:28.251Z,6.70
2023-01-18T18:32:55.248Z,8.60
2023-01-18T18:35:25.856Z,6.88
2023-01-18T18:37:55.423Z,7.55
2023-01-18T18:40:24.373Z,8.80
2023-01-18T18:43:07.548Z,7.57
2023-01-18T18:45:35.013Z,7.45
2023-01-18T18:48:06.349Z,8.07
2023-01-18T18:50:33.583Z,7.45
2023-01-18T18:53:01.049Z,8.60
2023-01-18T18:55:29.844Z,10.27
2023-01-18T18:57:56.812Z,11.05
2023-01-18T19:00:25.478Z,13.57
2023-01-18T19:03:00.986Z,13.15
2023-01-18T19:05:31.896Z,13.05
2023-01-18T19:07:59.221Z,11.63
2023-01-18T19:10:30.166Z,13.02
2023-01-18T19:12:58.173Z,9.77
2023-01-18T19:15:25.857Z,11.30
2023-01-18T19:17:53.173Z,12.45
2023-01-18T19:20:21.274Z,10.23
2023-01-18T19:22:50.007Z,13.95
2023-01-18T19:25:18.089Z,10.38
2023-01-18T19:27:45.660Z,10.77
2023-01-18T19:30:18.940Z,10.30
2023-01-18T19:32:51.260Z,11.18
2023-01-18T19:35:20.292Z,11.80
2023-01-18T19:37:48.396Z,10.35
2023-01-18T19:40:17.113Z,9.75
2023-01-18T19:42:44.479Z,10.35
2023-01-18T19:45:19.724Z,9.90
2023-01-18T19:47:55.857Z,10.60
2023-01-18T19:50:23.873Z,8.10
2023-01-18T19:52:51.176Z,10.43
2023-01-18T19:55:19.001Z,13.13
2023-01-18T19:57:45.944Z,10.05
2023-01-18T20:00:16.536Z,7.55
2023-01-18T20:02:44.381Z,8.57
2023-01-18T20:05:11.762Z,8.65
2023-01-18T20:07:40.284Z,7.90
2023-01-18T20:10:08.826Z,8.90
2023-01-18T20:12:36.030Z,7.97
2023-01-18T20:15:06.138Z,9.57
2023-01-18T20:17:34.463Z,7.15
2023-01-18T20:20:03.045Z,8.82
2023-01-18T20:22:30.991Z,7.82
2023-01-18T20:24:59.115Z,8.73
2023-01-18T20:27:27.279Z,9.20
2023-01-18T20:29:54.528Z,11.30
2023-01-18T20:32:22.230Z,12.05
2023-01-18T20:34:49.491Z,10.40
2023-01-18T20:37:16.656Z,9.90
2023-01-18T20:39:44.154Z,10.93
2023-01-18T20:42:11.121Z,9.23
2023-01-18T20:44:38.546Z,11.18
2023-01-18T20:47:05.742Z,11.20
2023-01-18T20:49:38.305Z,13.20
2023-01-18T20:52:07.536Z,10.48
2023-01-18T20:54:36.669Z,11.30
2023-01-18T20:57:06.762Z,12.63
2023-01-18T20:59:35.063Z,11.75
2023-01-18T21:02:03.849Z,13.63
2023-01-18T21:04:31.489Z,10.48
2023-01-18T21:06:58.928Z,16.02
2023-01-18T21:09:26.310Z,11.75
2023-01-18T21:11:53.419Z,13.93
2023-01-18T21:14:21.038Z,15.45
2023-01-18T21:16:48.346Z,13.77
2023-01-18T21:19:16.199Z,21.58
2023-01-18T21:21:44.559Z,19.17
2023-01-18T21:24:11.943Z,19.27
2023-01-18T21:26:39.166Z,17.60
2023-01-18T21:29:06.392Z,18.50
2023-01-18T21:31:33.737Z,21.45
2023-01-18T21:34:00.928Z,18.13
2023-01-18T21:36:30.403Z,41.63
2023-01-18T21:38:57.766Z,30.35
2023-01-18T21:41:43.281Z,26.63
2023-01-18T21:44:30.862Z,27.73
2023-01-18T21:46:59.244Z,27.48
2023-01-18T21:50:15.454Z,24.50
2023-01-18T21:52:53.577Z,21.58
2023-01-18T21:55:22.399Z,20.15
2023-01-18T21:58:09.410Z,20.33
2023-01-18T22:00:38.803Z,19.15
2023-01-18T22:03:06.579Z,23.05
2023-01-18T22:05:34.085Z,17.08
2023-01-18T22:08:01.466Z,20.38
2023-01-18T22:10:29.127Z,17.95
2023-01-18T22:12:56.650Z,20.17
2023-01-18T22:15:24.170Z,17.30
2023-01-18T22:17:51.134Z,20.08
2023-01-18T22:20:18.840Z,21.95
2023-01-18T22:22:46.434Z,20.65
2023-01-18T22:25:13.988Z,19.85
2023-01-18T22:27:40.970Z,22.90
2023-01-18T22:30:09.630Z,23.88
2023-01-18T22:32:36.680Z,23.45
2023-01-18T22:35:04.248Z,22.02
2023-01-18T22:37:31.374Z,25.77
2023-01-18T22:39:58.634Z,24.90
2023-01-18T22:42:27.800Z,23.67
2023-01-18T22:44:55.149Z,23.45
2023-01-18T22:47:22.451Z,24.77
2023-01-18T22:49:49.859Z,28.10
2023-01-18T22:52:17.174Z,25.40
2023-01-18T22:54:44.668Z,24.50
2023-01-18T22:57:11.691Z,22.60
2023-01-18T22:59:39.088Z,24.13
2023-01-18T23:02:06.006Z,24.63
2023-01-18T23:04:34.315Z,26.40
2023-01-18T23:07:01.458Z,22.20
2023-01-18T23:09:31.776Z,22.92
2023-01-18T23:11:58.897Z,25.02
2023-01-18T23:14:44.577Z,26.45
2023-01-18T23:17:31.246Z,25.33
2023-01-18T23:19:58.827Z,26.17
2023-01-18T23:22:26.396Z,26.02
2023-01-18T23:24:53.945Z,22.20
2023-01-18T23:27:21.056Z,23.67
2023-01-18T23:29:55.126Z,33.63
2023-01-18T23:32:27.843Z,25.92
2023-01-18T23:34:55.477Z,29.08
2023-01-18T23:37:22.995Z,26.15
2023-01-18T23:40:09.342Z,25.42
2023-01-18T23:42:55.082Z,26.75
2023-01-18T23:45:41.140Z,25.90
2023-01-18T23:48:39.272Z,28.60
2023-01-18T23:51:27.704Z,28.42
2023-01-18T23:54:15.657Z,27.27
2023-01-18T23:56:45.380Z,27.67
2023-01-18T23:59:14.045Z,23.75
